Time;durP1;ratioP1;P1;durP2;ratioP2;P2;SDS_P1;SDS_P2;PMS_P1;PMS_P2;Temp;Humidity;BMP_temperature;BMP_pressure;BME280_temperature;BME280_humidity;BME280_pressure;Samples;Min_cycle;Max_cycle;Signal;HPM_P1;HPM_P2
2021/06/18 00:01:22;;;;;;;4.63;2.10;;;21.70;75.20;;;;;;5114945;28;20024;-73
2021/06/18 00:03:50;;;;;;;6.53;2.67;;;21.70;75.30;;;;;;5116241;28;20107;-73
2021/06/18 00:06:17;;;;;;;5.00;2.35;;;21.70;75.20;;;;;;5115014;28;20073;-73
2021/06/18 00:08:43;;;;;;;3.17;1.83;;;21.70;75.30;;;;;;5115756;28;20376;-73
2021/06/18 00:11:09;;;;;;;4.57;2.60;;;21.60;75.40;;;;;;5115040;28;20395;-73
2021/06/18 00:13:35;;;;;;;6.05;2.08;;;21.60;75.60;;;;;;5115736;28;20080;-73
2021/06/18 00:16:00;;;;;;;4.80;2.30;;;21.60;75.60;;;;;;5116614;28;20043;-73
2021/06/18 00:18:26;;;;;;;4.43;2.42;;;21.70;75.50;;;;;;5113987;28;20030;-74
2021/06/18 00:20:52;;;;;;;3.70;2.10;;;21.60;75.40;;;;;;5114656;28;20020;-73
2021/06/18 00:23:18;;;;;;;5.93;2.45;;;21.70;75.30;;;;;;5116401;28;20525;-73
2021/06/18 00:25:43;;;;;;;4.47;2.30;;;21.70;75.50;;;;;;5115695;28;20030;-73
2021/06/18 00:28:10;;;;;;;5.13;2.20;;;21.70;75.30;;;;;;5114698;28;20024;-73
2021/06/18 00:30:36;;;;;;;4.22;2.30;;;21.80;75.40;;;;;;5114038;28;20461;-73
2021/06/18 00:33:03;;;;;;;4.75;2.22;;;21.80;75.10;;;;;;5114575;28;20473;-73
2021/06/18 00:35:28;;;;;;;5.28;2.40;;;21.80;74.70;;;;;;5113795;28;20034;-73
2021/06/18 00:37:54;;;;;;;4.30;2.42;;;21.80;74.60;;;;;;5114952;28;20032;-73
2021/06/18 00:40:20;;;;;;;6.28;2.30;;;21.90;74.90;;;;;;5115629;28;20027;-73
2021/06/18 00:42:45;;;;;;;4.93;2.17;;;21.90;75.00;;;;;;5113710;28;20135;-73
2021/06/18 00:45:11;;;;;;;8.10;2.25;;;21.90;74.70;;;;;;5115538;28;20388;-74
2021/06/18 00:47:46;;;;;;;5.00;2.20;;;21.90;74.60;;;;;;5113891;28;20028;-74
2021/06/18 00:50:12;;;;;;;4.13;2.53;;;21.90;74.40;;;;;;5114650;28;20031;-73
2021/06/18 00:52:38;;;;;;;5.22;2.30;;;21.80;74.20;;;;;;5114807;28;20054;-74
2021/06/18 00:55:04;;;;;;;3.75;2.25;;;21.80;74.30;;;;;;5115424;28;20024;-74
2021/06/18 00:57:31;;;;;;;4.68;2.10;;;21.70;74.40;;;;;;5113724;28;20028;-75
2021/06/18 00:59:56;;;;;;;2.92;1.88;;;21.70;74.50;;;;;;5104623;28;20019;-74
2021/06/18 01:02:22;;;;;;;6.43;2.03;;;21.70;74.40;;;;;;5093280;28;20031;-73
2021/06/18 01:04:48;;;;;;;7.43;2.50;;;21.70;74.50;;;;;;5093251;28;20024;-74
2021/06/18 01:07:18;;;;;;;7.43;2.58;;;21.60;74.70;;;;;;5094569;28;20339;-73
2021/06/18 01:10:05;;;;;;;6.85;2.22;;;21.60;75.00;;;;;;5094788;28;20028;-74
2021/06/18 01:12:51;;;;;;;5.75;2.30;;;21.60;75.10;;;;;;5094750;28;20039;-74
2021/06/18 01:15:32;;;;;;;6.65;2.72;;;21.50;75.00;;;;;;5093227;28;20032;-73
2021/06/18 01:18:05;;;;;;;4.85;2.38;;;21.50;75.40;;;;;;5093831;28;20474;-73
2021/06/18 01:20:44;;;;;;;5.82;2.70;;;21.50;75.70;;;;;;5093944;28;20016;-73
2021/06/18 01:23:26;;;;;;;5.05;2.03;;;21.60;75.10;;;;;;5093313;28;20390;-73
2021/06/18 01:26:17;;;;;;;6.45;2.20;;;21.60;74.90;;;;;;5094912;28;20027;-73
2021/06/18 01:28:55;;;;;;;6.38;2.30;;;21.60;74.70;;;;;;5082637;28;20047;-73
2021/06/18 01:31:26;;;;;;;4.57;2.10;;;21.60;74.60;;;;;;5093250;28;20063;-73
2021/06/18 01:34:23;;;;;;;4.45;2.00;;;21.50;74.50;;;;;;5093957;28;20150;-73
2021/06/18 01:36:52;;;;;;;7.03;2.20;;;21.50;74.50;;;;;;5093996;28;20097;-73
2021/06/18 01:39:18;;;;;;;3.67;2.25;;;21.50;74.30;;;;;;5094043;28;20048;-73
2021/06/18 01:41:47;;;;;;;6.07;2.40;;;21.50;74.20;;;;;;5094139;28;20031;-72
2021/06/18 01:44:14;;;;;;;2.90;1.92;;;21.50;74.10;;;;;;5092572;28;20081;-73
2021/06/18 01:46:42;;;;;;;6.55;1.90;;;21.40;74.10;;;;;;5092718;28;20032;-72
2021/06/18 01:49:12;;;;;;;4.07;1.98;;;21.40;74.10;;;;;;5093274;28;20024;-72
2021/06/18 01:51:39;;;;;;;5.28;2.28;;;21.40;74.30;;;;;;5094166;28;20030;-72
2021/06/18 01:54:08;;;;;;;5.95;2.22;;;21.40;74.50;;;;;;5092495;28;20028;-73
2021/06/18 01:56:37;;;;;;;6.22;2.30;;;21.40;74.50;;;;;;5093460;28;20046;-73
2021/06/18 01:59:04;;;;;;;4.93;2.35;;;21.40;74.40;;;;;;5092929;28;20020;-73
2021/06/18 02:01:36;;;;;;;5.65;2.00;;;21.30;74.50;;;;;;5092408;28;20026;-72
2021/06/18 02:04:05;;;;;;;3.88;2.15;;;21.40;74.40;;;;;;5093957;28;20032;-72
2021/06/18 02:06:32;;;;;;;7.93;2.88;;;21.30;74.30;;;;;;5091999;28;20027;-73
2021/06/18 02:09:00;;;;;;;4.93;2.40;;;21.30;74.30;;;;;;5092246;28;20031;-73
2021/06/18 02:11:28;;;;;;;8.90;2.28;;;21.30;74.30;;;;;;5092348;28;20032;-72
2021/06/18 02:13:55;;;;;;;5.32;2.33;;;21.20;74.30;;;;;;5092861;28;20035;-73
2021/06/18 02:16:24;;;;;;;6.47;2.35;;;21.30;74.50;;;;;;5093432;28;20169;-73
2021/06/18 02:18:52;;;;;;;4.88;2.22;;;21.20;74.70;;;;;;5092098;28;20118;-72
2021/06/18 02:21:19;;;;;;;7.78;3.08;;;21.20;74.90;;;;;;5093575;28;20091;-73
2021/06/18 02:23:46;;;;;;;6.70;2.83;;;21.30;74.80;;;;;;5093080;28;20115;-73
2021/06/18 02:26:11;;;;;;;5.28;2.20;;;21.30;74.80;;;;;;5092399;28;20039;-73
2021/06/18 02:28:37;;;;;;;6.20;2.42;;;21.30;74.80;;;;;;5092961;28;20374;-73
2021/06/18 02:31:04;;;;;;;4.50;2.47;;;21.40;74.80;;;;;;5093438;28;20024;-73
2021/06/18 02:33:30;;;;;;;3.80;2.28;;;21.40;74.80;;;;;;5093081;28;20028;-73
2021/06/18 02:35:58;;;;;;;4.45;2.70;;;21.40;74.70;;;;;;5093293;28;20077;-73
2021/06/18 02:38:24;;;;;;;5.90;2.70;;;21.40;74.70;;;;;;5091647;28;20857;-73
2021/06/18 02:40:50;;;;;;;5.13;2.72;;;21.40;74.70;;;;;;5092760;28;20024;-73
2021/06/18 02:43:15;;;;;;;7.07;3.58;;;21.50;74.60;;;;;;5093269;28;20036;-73
2021/06/18 02:45:41;;;;;;;9.77;2.95;;;21.50;74.20;;;;;;5092849;28;20095;-74
2021/06/18 02:48:25;;;;;;;8.35;4.32;;;21.50;74.20;;;;;;5093110;28;20024;-73
2021/06/18 02:50:58;;;;;;;6.38;2.83;;;21.50;74.20;;;;;;5091418;28;20035;-73
2021/06/18 02:53:58;;;;;;;5.70;2.88;;;21.60;74.10;;;;;;5092041;28;20036;-73
2021/06/18 02:56:32;;;;;;;5.60;2.33;;;21.70;74.10;;;;;;5091475;28;20466;-73
2021/06/18 02:59:15;;;;;;;5.90;2.40;;;21.70;74.30;;;;;;5092111;28;20109;-73
2021/06/18 03:01:42;;;;;;;4.97;2.35;;;21.70;73.90;;;;;;5092868;28;20035;-73
2021/06/18 03:04:21;;;;;;;4.20;2.50;;;21.90;74.00;;;;;;5091487;28;20032;-73
2021/06/18 03:06:56;;;;;;;7.47;2.50;;;22.00;73.60;;;;;;5091418;28;20111;-73
2021/06/18 03:09:28;;;;;;;4.30;3.05;;;22.30;73.20;;;;;;5091491;28;20476;-73
2021/06/18 03:11:56;;;;;;;6.70;2.70;;;22.40;72.40;;;;;;5091937;28;20060;-73
2021/06/18 03:14:25;;;;;;;4.82;2.38;;;22.50;71.80;;;;;;5092772;28;20032;-73
2021/06/18 03:16:57;;;;;;;6.68;2.60;;;22.50;71.50;;;;;;5092570;28;20040;-74
2021/06/18 03:19:46;;;;;;;5.07;2.35;;;22.40;71.30;;;;;;5091694;28;20024;-73
2021/06/18 03:22:13;;;;;;;6.18;3.03;;;22.30;71.60;;;;;;5092179;28;20044;-73
2021/06/18 03:24:40;;;;;;;4.70;2.80;;;22.20;71.40;;;;;;5092402;28;20021;-73
2021/06/18 03:27:07;;;;;;;6.38;2.55;;;22.20;71.70;;;;;;5091380;28;20020;-73
2021/06/18 03:29:34;;;;;;;8.50;3.13;;;22.10;71.80;;;;;;5091709;28;20363;-74
2021/06/18 03:32:01;;;;;;;4.65;2.65;;;22.00;72.10;;;;;;5091217;28;20026;-74
2021/06/18 03:34:28;;;;;;;6.45;2.63;;;22.00;72.10;;;;;;5090969;28;20143;-74
2021/06/18 03:36:56;;;;;;;6.47;2.90;;;21.90;72.30;;;;;;5091495;28;20432;-73
2021/06/18 03:39:22;;;;;;;5.47;2.90;;;21.90;72.80;;;;;;5096465;28;20030;-85
2021/06/18 03:41:49;;;;;;;5.53;2.67;;;22.00;73.10;;;;;;5095267;28;20359;-82
2021/06/18 03:44:20;;;;;;;6.95;2.45;;;22.00;73.00;;;;;;5095469;28;20084;-85
2021/06/18 03:46:47;;;;;;;7.05;2.70;;;22.10;73.30;;;;;;5096214;28;20684;-86
2021/06/18 03:49:13;;;;;;;5.80;2.50;;;22.10;73.10;;;;;;5097476;28;20454;-70
2021/06/18 03:51:39;;;;;;;5.43;2.40;;;22.20;73.20;;;;;;5106172;28;20107;-71
2021/06/18 03:54:06;;;;;;;4.88;2.90;;;22.20;72.80;;;;;;5109610;28;20094;-71
2021/06/18 03:56:33;;;;;;;8.02;3.08;;;22.30;72.70;;;;;;5105705;28;20023;-71
2021/06/18 03:59:00;;;;;;;8.20;2.72;;;22.30;72.40;;;;;;5102563;28;20031;-71
2021/06/18 04:01:29;;;;;;;8.20;3.45;;;22.40;72.70;;;;;;5109003;28;20011;-71
2021/06/18 04:03:58;;;;;;;6.00;2.83;;;22.50;73.10;;;;;;5104439;28;20031;-71
2021/06/18 04:06:27;;;;;;;3.97;2.30;;;22.70;72.40;;;;;;5104127;28;20023;-71
2021/06/18 04:08:54;;;;;;;6.97;2.30;;;23.10;72.20;;;;;;5110074;28;20028;-71
2021/06/18 04:11:20;;;;;;;7.82;5.05;;;23.60;70.90;;;;;;5097568;28;20095;-71
2021/06/18 04:13:47;;;;;;;8.57;4.32;;;24.10;69.80;;;;;;5106522;28;20110;-71
2021/06/18 04:16:13;;;;;;;4.47;2.60;;;24.70;68.10;;;;;;5095783;28;20101;-71
2021/06/18 04:18:44;;;;;;;6.53;2.45;;;24.90;66.50;;;;;;5095396;28;20028;-71
2021/06/18 04:21:15;;;;;;;4.18;2.30;;;24.90;65.50;;;;;;5098375;28;20028;-68
2021/06/18 04:23:41;;;;;;;6.57;2.13;;;25.20;65.90;;;;;;5110408;28;20389;-69
2021/06/18 04:26:07;;;;;;;5.85;3.20;;;25.60;65.10;;;;;;5104564;28;20028;-70
2021/06/18 04:28:35;;;;;;;6.10;2.95;;;26.00;64.10;;;;;;5097392;28;20024;-70
2021/06/18 04:31:01;;;;;;;14.30;6.93;;;26.30;63.20;;;;;;5099406;28;20430;-70
2021/06/18 04:33:27;;;;;;;10.70;2.70;;;26.50;62.30;;;;;;5094175;28;20028;-70
2021/06/18 04:35:52;;;;;;;7.10;2.85;;;26.70;62.10;;;;;;5095490;28;20035;-70
2021/06/18 04:38:18;;;;;;;6.30;2.75;;;27.00;61.30;;;;;;5094351;28;20020;-79
2021/06/18 04:40:44;;;;;;;7.53;3.70;;;27.20;61.40;;;;;;5093595;28;20035;-81
2021/06/18 04:43:10;;;;;;;4.85;2.97;;;27.30;60.20;;;;;;5103313;28;20042;-80
2021/06/18 04:45:35;;;;;;;6.55;3.65;;;27.40;59.70;;;;;;5100400;28;20035;-80
2021/06/18 04:48:01;;;;;;;9.77;4.78;;;27.60;59.40;;;;;;5113853;28;20385;-83
2021/06/18 04:50:27;;;;;;;7.05;2.88;;;27.60;59.00;;;;;;5098920;28;20482;-80
2021/06/18 04:52:53;;;;;;;10.88;3.13;;;27.80;59.10;;;;;;5096461;28;20042;-83
2021/06/18 04:55:19;;;;;;;11.20;4.18;;;27.90;59.40;;;;;;5101266;28;20028;-83
2021/06/18 04:57:46;;;;;;;10.30;4.70;;;28.00;58.50;;;;;;5099499;28;20057;-82
2021/06/18 05:00:14;;;;;;;7.10;3.50;;;28.20;58.40;;;;;;5108703;28;20026;-81
2021/06/18 05:02:40;;;;;;;12.65;3.65;;;28.20;57.40;;;;;;5113704;28;20134;-85
2021/06/18 05:05:06;;;;;;;7.28;3.03;;;28.00;57.50;;;;;;5113706;28;20533;-82
2021/06/18 05:07:32;;;;;;;5.93;2.20;;;28.10;57.80;;;;;;5109807;28;20156;-82
2021/06/18 05:09:58;;;;;;;4.25;2.15;;;28.30;57.80;;;;;;5100452;28;20487;-82
2021/06/18 05:12:23;;;;;;;8.98;2.45;;;28.70;57.70;;;;;;5113536;28;20024;-82
2021/06/18 05:14:49;;;;;;;5.35;2.42;;;29.00;57.10;;;;;;5108845;28;20040;-75
2021/06/18 05:17:15;;;;;;;5.78;2.25;;;29.40;56.80;;;;;;5111360;28;20134;-75
2021/06/18 05:19:41;;;;;;;9.07;2.50;;;29.90;55.90;;;;;;5110381;28;20035;-77
2021/06/18 05:22:07;;;;;;;9.80;2.22;;;30.30;54.70;;;;;;5109415;28;20027;-78
2021/06/18 05:24:38;;;;;;;5.97;2.10;;;30.50;53.80;;;;;;5104986;28;20482;-77
2021/06/18 18:11:36;;;;;;;;;;;23.30;88.00;;;;;;5308196;23;20062;-80
2021/06/18 18:14:06;;;;;;;8.43;6.00;;;23.30;87.00;;;;;;4984382;28;19910;-78
2021/06/18 18:16:32;;;;;;;9.52;6.47;;;23.30;87.80;;;;;;4984401;28;20046;-75
2021/06/18 18:18:58;;;;;;;9.10;6.32;;;23.20;89.10;;;;;;5005800;28;20028;-77
2021/06/18 18:21:24;;;;;;;10.00;5.55;;;23.20;89.80;;;;;;4988819;28;20037;-77
2021/06/18 18:23:49;;;;;;;8.82;6.30;;;23.20;89.40;;;;;;4999183;28;20066;-78
2021/06/18 18:26:15;;;;;;;9.13;6.10;;;23.30;89.50;;;;;;4979398;28;20509;-76
2021/06/18 18:28:41;;;;;;;9.98;5.95;;;23.30;90.10;;;;;;4988072;28;20037;-77
2021/06/18 18:31:07;;;;;;;9.85;6.82;;;23.30;90.00;;;;;;5010546;28;20018;-79
2021/06/18 18:33:34;;;;;;;9.90;5.90;;;23.40;89.80;;;;;;4991232;28;20375;-78
2021/06/18 18:36:00;;;;;;;8.50;6.20;;;23.40;89.00;;;;;;4964880;28;20035;-79
2021/06/18 18:38:25;;;;;;;7.55;5.82;;;23.40;89.10;;;;;;4981135;28;20026;-77
2021/06/18 18:40:52;;;;;;;8.10;6.43;;;23.30;88.80;;;;;;4961410;28;20113;-81
2021/06/18 18:43:17;;;;;;;13.50;10.68;;;23.30;89.00;;;;;;4980301;28;20026;-80
2021/06/18 18:45:46;;;;;;;20.92;16.80;;;23.20;89.90;;;;;;4969069;28;20037;-81
2021/06/18 18:48:12;;;;;;;19.33;14.20;;;23.20;89.60;;;;;;4993546;28;20027;-74
2021/06/18 18:50:38;;;;;;;18.10;15.38;;;23.20;89.70;;;;;;4993551;28;20018;-75
2021/06/18 18:53:05;;;;;;;17.58;11.82;;;23.20;90.00;;;;;;4997688;28;20077;-77
2021/06/18 18:55:31;;;;;;;13.13;8.40;;;23.20;90.00;;;;;;4985710;28;20058;-76
2021/06/18 18:57:57;;;;;;;11.93;8.27;;;23.20;90.20;;;;;;4974976;28;20034;-79
2021/06/18 19:00:23;;;;;;;13.55;7.40;;;23.20;90.20;;;;;;5005764;28;20030;-77
2021/06/18 19:02:48;;;;;;;10.90;7.03;;;23.20;90.50;;;;;;4976319;28;20041;-77
2021/06/18 19:05:15;;;;;;;9.18;6.65;;;23.20;90.80;;;;;;5010267;28;20158;-77
2021/06/18 19:07:42;;;;;;;11.13;6.95;;;23.20;91.00;;;;;;4984476;28;20476;-78
2021/06/18 19:10:11;;;;;;;11.93;6.95;;;23.30;91.20;;;;;;4992005;28;20065;-77
2021/06/18 19:12:37;;;;;;;8.70;7.07;;;23.40;91.30;;;;;;4975340;28;20031;-81
2021/06/18 19:15:04;;;;;;;12.50;7.65;;;23.40;90.90;;;;;;4974030;28;20037;-78
2021/06/18 19:17:30;;;;;;;10.07;7.93;;;23.40;90.90;;;;;;4991163;28;20374;-81
2021/06/18 19:19:56;;;;;;;9.57;6.70;;;23.40;91.10;;;;;;4986406;28;20026;-80
2021/06/18 19:22:21;;;;;;;10.00;7.07;;;23.40;91.10;;;;;;4993434;28;20038;-79
2021/06/18 19:24:47;;;;;;;8.70;6.60;;;23.40;91.10;;;;;;4973567;28;20438;-73
2021/06/18 19:27:14;;;;;;;10.32;6.68;;;23.40;91.20;;;;;;4988931;28;20030;-81
2021/06/18 19:29:40;;;;;;;11.15;6.68;;;23.40;91.30;;;;;;4977778;28;20523;-84
2021/06/18 19:32:06;;;;;;;9.65;7.10;;;23.40;91.20;;;;;;4964599;28;20114;-79
2021/06/18 19:34:42;;;;;;;7.25;5.30;;;23.40;91.20;;;;;;4974865;28;20046;-78
2021/06/18 19:37:09;;;;;;;8.93;5.53;;;23.40;91.00;;;;;;4978104;28;20022;-78
2021/06/18 19:39:35;;;;;;;9.93;7.40;;;23.40;90.90;;;;;;4987095;28;20027;-78
2021/06/18 19:42:05;;;;;;;10.32;5.88;;;23.40;90.70;;;;;;4980314;28;20033;-76
2021/06/18 19:44:31;;;;;;;7.60;5.38;;;23.50;90.60;;;;;;4987759;28;20030;-79
2021/06/18 19:47:11;;;;;;;7.07;5.30;;;23.50;90.50;;;;;;4970392;28;20031;-78
2021/06/18 19:49:38;;;;;;;9.48;5.40;;;23.50;90.60;;;;;;4967590;28;20472;-78
2021/06/18 19:52:04;;;;;;;9.25;5.35;;;23.60;90.30;;;;;;4981735;28;20054;-78
2021/06/18 19:54:32;;;;;;;9.52;5.13;;;23.60;90.40;;;;;;4987307;28;20023;-77
2021/06/18 19:56:59;;;;;;;8.38;5.45;;;23.60;90.40;;;;;;4985248;28;20045;-78
2021/06/18 19:59:26;;;;;;;10.73;6.40;;;23.60;90.30;;;;;;4985232;28;20038;-78
2021/06/18 20:01:51;;;;;;;11.80;8.23;;;23.70;90.10;;;;;;4996141;28;20062;-80
2021/06/18 20:04:17;;;;;;;15.32;12.02;;;23.70;90.00;;;;;;4976623;28;20026;-79
2021/06/18 20:06:43;;;;;;;23.85;21.58;;;23.80;90.00;;;;;;4978640;28;20030;-79
2021/06/18 20:09:08;;;;;;;24.23;21.55;;;23.80;88.80;;;;;;4978886;28;20101;-76
2021/06/18 20:11:34;;;;;;;24.48;22.15;;;23.80;87.80;;;;;;4978467;28;20061;-79
2021/06/18 20:14:00;;;;;;;15.65;14.25;;;23.80;86.90;;;;;;4979243;28;20415;-76
2021/06/18 20:16:26;;;;;;;15.48;12.95;;;23.80;86.10;;;;;;4977452;28;20388;-76
2021/06/18 20:18:52;;;;;;;13.35;11.05;;;23.90;85.60;;;;;;4978948;28;20109;-75
2021/06/18 20:21:18;;;;;;;14.10;10.38;;;23.90;85.20;;;;;;4993027;28;20461;-77
2021/06/18 20:23:44;;;;;;;24.90;18.95;;;23.90;84.70;;;;;;4974395;28;20037;-75
2021/06/18 20:26:10;;;;;;;23.50;17.92;;;23.80;84.40;;;;;;4995331;28;20535;-75
2021/06/18 20:28:36;;;;;;;22.40;20.15;;;23.90;84.10;;;;;;4996093;28;20379;-78
2021/06/18 20:31:02;;;;;;;18.73;16.88;;;23.90;83.90;;;;;;4966749;28;20076;-79
2021/06/18 20:33:38;;;;;;;11.90;10.40;;;23.90;83.60;;;;;;4984749;28;20034;-77
2021/06/18 20:36:05;;;;;;;18.20;11.13;;;23.90;83.30;;;;;;4961763;28;20030;-79
2021/06/18 20:38:31;;;;;;;18.90;16.42;;;23.90;83.20;;;;;;4959762;28;20413;-80
2021/06/18 20:40:58;;;;;;;33.05;29.35;;;23.90;82.50;;;;;;4990713;28;20145;-76
2021/06/18 20:43:25;;;;;;;18.92;17.13;;;23.80;82.60;;;;;;4979173;28;20170;-82
2021/06/18 20:45:50;;;;;;;13.75;12.05;;;23.90;83.00;;;;;;4977358;28;20058;-75
2021/06/18 20:48:16;;;;;;;12.40;10.88;;;23.80;82.90;;;;;;4978040;28;20069;-74
2021/06/18 20:50:42;;;;;;;11.90;9.70;;;23.80;83.10;;;;;;4990100;28;20114;-78
2021/06/18 20:53:08;;;;;;;14.27;12.27;;;23.80;83.20;;;;;;4976390;28;20037;-74
2021/06/18 20:55:34;;;;;;;12.82;9.80;;;23.80;83.50;;;;;;4974883;28;20056;-81
2021/06/18 20:58:00;;;;;;;11.35;9.50;;;23.70;83.50;;;;;;4993912;28;20097;-80
2021/06/18 21:00:27;;;;;;;11.45;9.10;;;23.70;83.60;;;;;;4994996;28;20033;-79
2021/06/18 21:02:53;;;;;;;10.82;6.47;;;23.70;83.70;;;;;;4965249;28;20041;-77
2021/06/18 21:05:21;;;;;;;7.82;5.43;;;23.70;83.70;;;;;;4992804;28;20023;-78
2021/06/18 21:07:49;;;;;;;7.25;4.13;;;23.70;83.70;;;;;;4974582;28;20022;-76
2021/06/18 21:10:16;;;;;;;10.13;4.68;;;23.60;83.30;;;;;;4980581;28;20034;-75
2021/06/18 21:12:42;;;;;;;7.63;4.20;;;23.60;83.30;;;;;;4979371;28;20026;-76
2021/06/18 21:15:15;;;;;;;8.52;4.50;;;23.60;83.30;;;;;;4968787;28;20038;-79
2021/06/18 21:17:42;;;;;;;7.85;4.28;;;23.50;83.40;;;;;;4971318;28;20033;-77
2021/06/18 21:20:09;;;;;;;9.13;3.88;;;23.40;83.60;;;;;;4977559;28;20030;-76
2021/06/18 21:22:35;;;;;;;9.32;5.10;;;23.30;83.70;;;;;;4978504;28;20034;-78
2021/06/18 21:25:01;;;;;;;9.65;7.35;;;23.30;83.90;;;;;;4996654;28;20037;-77
2021/06/18 21:27:27;;;;;;;13.38;8.93;;;23.20;84.10;;;;;;4996435;28;20456;-77
2021/06/18 21:29:54;;;;;;;12.90;11.10;;;23.20;84.40;;;;;;4963899;28;20058;-77
2021/06/18 21:32:20;;;;;;;19.25;15.60;;;23.20;84.70;;;;;;4978907;28;20113;-78
2021/06/18 21:34:46;;;;;;;39.90;31.25;;;23.10;85.00;;;;;;4982312;28;20413;-75
2021/06/18 21:37:12;;;;;;;55.15;39.67;;;23.10;85.20;;;;;;4982056;28;20033;-77
2021/06/18 21:39:38;;;;;;;53.63;40.08;;;23.00;85.40;;;;;;4978836;28;20033;-74
2021/06/18 21:42:04;;;;;;;45.00;38.92;;;23.00;85.70;;;;;;4995372;28;20028;-75
2021/06/18 21:44:30;;;;;;;42.60;36.58;;;23.00;85.90;;;;;;4977776;28;20035;-81
2021/06/18 21:46:55;;;;;;;36.30;32.50;;;23.00;86.00;;;;;;4977616;28;20037;-75
2021/06/18 21:49:21;;;;;;;22.58;19.42;;;23.00;86.20;;;;;;4994855;28;20027;-76
2021/06/18 21:51:47;;;;;;;18.55;15.82;;;23.00;86.90;;;;;;4977860;28;20023;-77
2021/06/18 21:54:14;;;;;;;6.72;5.00;;;23.00;87.50;;;;;;4977303;28;20061;-76
2021/06/18 21:56:40;;;;;;;10.77;5.97;;;22.90;87.00;;;;;;4977772;28;20460;-76
2021/06/18 21:59:06;;;;;;;9.60;6.47;;;22.90;86.70;;;;;;4994881;28;20022;-76
2021/06/18 22:01:33;;;;;;;8.02;4.70;;;22.90;86.90;;;;;;4977281;28;20027;-76
2021/06/18 22:03:59;;;;;;;8.50;4.47;;;23.00;86.60;;;;;;4977199;28;20034;-76
2021/06/18 22:06:25;;;;;;;11.52;8.30;;;22.90;86.20;;;;;;4976650;28;20475;-76
2021/06/18 22:08:50;;;;;;;9.73;4.03;;;23.00;85.90;;;;;;4977368;28;20034;-75
2021/06/18 22:11:17;;;;;;;9.35;4.90;;;23.00;85.60;;;;;;4976433;28;20054;-73
2021/06/18 22:13:43;;;;;;;6.70;3.83;;;23.00;85.90;;;;;;4976490;28;20034;-75
2021/06/18 22:16:13;;;;;;;12.13;3.92;;;22.90;86.10;;;;;;4993808;28;20403;-75
2021/06/18 22:18:39;;;;;;;8.10;4.13;;;22.90;86.50;;;;;;4993758;28;20520;-75
2021/06/18 22:21:06;;;;;;;10.00;4.20;;;22.80;87.00;;;;;;4993989;28;20105;-76
2021/06/18 22:23:32;;;;;;;10.73;4.80;;;22.80;86.70;;;;;;4994189;28;20045;-77
2021/06/18 22:25:58;;;;;;;6.57;4.20;;;22.70;86.50;;;;;;4976415;28;20031;-75
2021/06/18 22:28:24;;;;;;;5.18;3.58;;;22.70;86.30;;;;;;4993524;28;20030;-74
2021/06/18 22:30:51;;;;;;;5.60;3.38;;;22.70;86.10;;;;;;4975754;28;20108;-80
2021/06/18 22:33:21;;;;;;;10.18;7.30;;;22.70;85.90;;;;;;4993592;28;20034;-75
2021/06/18 22:35:48;;;;;;;13.10;11.23;;;22.60;85.60;;;;;;4993410;28;20019;-74
2021/06/18 22:38:15;;;;;;;25.90;23.35;;;22.60;85.40;;;;;;4975932;28;20038;-74
2021/06/18 22:40:42;;;;;;;37.00;33.40;;;22.50;85.20;;;;;;4975721;28;20117;-76
2021/06/18 22:43:08;;;;;;;32.22;28.83;;;22.50;85.10;;;;;;4976263;28;20032;-77
2021/06/18 22:45:34;;;;;;;53.00;47.67;;;22.50;85.20;;;;;;4976103;28;20068;-74
2021/06/18 22:47:59;;;;;;;67.95;57.63;;;22.50;85.10;;;;;;4975898;28;20057;-76
2021/06/18 22:50:29;;;;;;;70.35;62.72;;;22.50;84.80;;;;;;4993254;28;20041;-76
2021/06/18 22:52:55;;;;;;;47.78;43.10;;;22.50;84.60;;;;;;4975827;28;20026;-74
2021/06/18 22:55:25;;;;;;;28.35;24.70;;;22.60;83.90;;;;;;4975838;28;20089;-78
2021/06/18 22:57:53;;;;;;;33.20;29.85;;;22.60;83.70;;;;;;4975597;28;20027;-76
2021/06/18 23:00:56;;;;;;;40.97;36.83;;;22.60;83.40;;;;;;4984316;28;20146;-75
2021/06/18 23:03:22;;;;;;;30.85;27.80;;;22.70;83.20;;;;;;4956371;28;20030;-74
2021/06/18 23:05:49;;;;;;;25.83;22.83;;;22.70;82.60;;;;;;4973595;28;20023;-74
2021/06/18 23:08:15;;;;;;;17.85;16.15;;;22.70;82.40;;;;;;4956992;28;20102;-75
2021/06/18 23:10:41;;;;;;;15.43;12.73;;;22.70;81.80;;;;;;4984509;28;100710;-77
2021/06/18 23:13:08;;;;;;;14.70;12.75;;;22.70;81.20;;;;;;4958112;28;20038;-76
2021/06/18 23:15:33;;;;;;;14.68;11.18;;;22.70;81.00;;;;;;4958463;28;20040;-76
2021/06/18 23:17:59;;;;;;;12.32;10.35;;;22.70;80.60;;;;;;4983465;28;20054;-76
2021/06/18 23:20:25;;;;;;;15.15;13.45;;;22.70;80.40;;;;;;4993114;28;20030;-75
2021/06/18 23:22:53;;;;;;;12.52;10.13;;;22.70;80.30;;;;;;4980216;28;20054;-75
2021/06/18 23:25:21;;;;;;;7.82;3.88;;;22.60;80.10;;;;;;4992925;28;20046;-75
2021/06/18 23:27:53;;;;;;;7.28;3.20;;;22.60;79.90;;;;;;4986737;28;20093;-76
2021/06/18 23:30:21;;;;;;;4.05;3.08;;;22.60;79.90;;;;;;4966765;28;20030;-77
2021/06/18 23:32:47;;;;;;;4.53;2.97;;;22.60;79.90;;;;;;4968876;28;20034;-75
2021/06/18 23:35:13;;;;;;;7.40;3.33;;;22.60;79.90;;;;;;4967327;28;20034;-76
2021/06/18 23:37:39;;;;;;;7.40;3.28;;;22.60;79.90;;;;;;4977544;28;20373;-74
2021/06/18 23:40:06;;;;;;;5.25;3.28;;;22.50;80.00;;;;;;4960556;28;20035;-75
2021/06/18 23:42:32;;;;;;;12.70;9.50;;;22.50;80.00;;;;;;4977975;28;20046;-75
2021/06/18 23:44:57;;;;;;;10.45;9.45;;;22.50;80.10;;;;;;4977891;28;20030;-76
2021/06/18 23:47:23;;;;;;;10.02;7.10;;;22.50;80.10;;;;;;4977715;28;20388;-75
2021/06/18 23:49:49;;;;;;;8.68;4.45;;;22.50;80.00;;;;;;4978381;28;20031;-76
2021/06/18 23:52:15;;;;;;;7.35;5.60;;;22.50;79.90;;;;;;4960193;28;20039;-76
2021/06/18 23:54:41;;;;;;;13.63;8.02;;;22.50;79.90;;;;;;4977757;28;20409;-75
2021/06/18 23:57:07;;;;;;;7.93;6.55;;;22.40;80.00;;;;;;4977923;28;20461;-77
2021/06/18 23:59:38;;;;;;;12.60;10.02;;;22.40;80.20;;;;;;4960062;28;20034;-78
